Time;durP1;ratioP1;P1;durP2;ratioP2;P2;SDS_P1;SDS_P2;PMS_P1;PMS_P2;Temp;Humidity;BMP_temperature;BMP_pressure;BME280_temperature;BME280_humidity;BME280_pressure;Samples;Min_cycle;Max_cycle;Signal;HPM_P1;HPM_P2
2023/03/16 00:01:35;;;;;;;;;;;;;;;1.02;100.00;96930.06;5064883;28;19928;-72
2023/03/16 00:04:01;;;;;;;;;;;;;;;0.94;100.00;96926.16;5065019;28;19931;-72
2023/03/16 00:06:26;;;;;;;;;;;;;;;0.97;100.00;96933.66;5059482;28;19955;-70
2023/03/16 00:08:51;;;;;;;;;;;;;;;0.91;100.00;96935.63;5045389;28;19974;-73
2023/03/16 00:11:17;;;;;;;;;;;;;;;0.86;100.00;96933.03;5060065;28;19970;-71
2023/03/16 00:13:42;;;;;;;;;;;;;;;0.83;100.00;96935.53;5065220;28;19916;-72
2023/03/16 00:16:07;;;;;;;;;;;;;;;0.82;100.00;96933.94;5064337;28;19928;-71
2023/03/16 00:18:37;;;;;;;;;;;;;;;0.79;100.00;96929.13;5068743;28;19983;-70
2023/03/16 00:21:04;;;;;;;;;;;;;;;0.76;100.00;96920.56;5060910;28;20271;-67
2023/03/16 00:23:34;;;;;;;;;;;;;;;0.76;100.00;96920.56;5063962;28;20066;-72
2023/03/16 00:26:01;;;;;;;;;;;;;;;0.69;100.00;96916.66;5068264;28;19927;-70
2023/03/16 00:28:29;;;;;;;;;;;;;;;0.65;100.00;96918.31;5081705;28;19920;-68
2023/03/16 00:30:57;;;;;;;;;;;;;;;0.64;100.00;96916.75;5066568;28;19916;-70
2023/03/16 00:33:24;;;;;;;;;;;;;;;0.66;100.00;96920.72;5064854;28;20392;-71
2023/03/16 00:35:49;;;;;;;;;;;;;;;0.65;100.00;96912.94;5065616;28;19923;-69
2023/03/16 00:38:18;;;;;;;;;;;;;;;0.67;100.00;96916.94;5059307;28;19921;-70
2023/03/16 00:40:45;;;;;;;;;;;;;;;0.62;100.00;96903.56;5069262;28;19924;-73
2023/03/16 00:43:11;;;;;;;;;;;;;;;0.72;100.00;96913.34;5062642;28;19968;-72
2023/03/16 00:45:37;;;;;;;;;;;;;;;0.77;100.00;96905.16;5063640;28;20014;-72
2023/03/16 00:48:02;;;;;;;;;;;;;;;0.65;100.00;96902.97;5063170;28;19920;-69
2023/03/16 00:50:27;;;;;;;;;;;;;;;0.61;100.00;96911.94;5043093;28;19925;-70
2023/03/16 00:52:53;;;;;;;;;;;;;;;0.55;100.00;96908.53;5064518;28;19924;-70
2023/03/16 00:55:19;;;;;;;;;;;;;;;0.54;100.00;96901.53;5057517;28;20278;-69
2023/03/16 00:57:44;;;;;;;;;;;;;;;0.55;100.00;96903.94;5062010;28;20329;-69
2023/03/16 01:00:15;;;;;;;;;;;;;;;0.59;100.00;96903.34;5040630;28;19916;-70
2023/03/16 01:02:41;;;;;;;;;;;;;;;0.53;100.00;96895.34;5062545;28;19923;-70
2023/03/16 01:05:08;;;;;;;;;;;;;;;0.49;100.00;96891.66;5057846;28;20281;-70
2023/03/16 01:07:35;;;;;;;;;;;;;;;0.43;100.00;96887.44;5063143;28;20511;-70
2023/03/16 01:10:00;;;;;;;;;;;;;;;0.39;100.00;96886.44;5063149;28;19916;-72
2023/03/16 01:12:26;;;;;;;;;;;;;;;0.42;100.00;96885.84;5058154;28;19939;-71
2023/03/16 01:14:52;;;;;;;;;;;;;;;0.33;100.00;96888.41;5045690;28;19923;-71
2023/03/16 01:17:18;;;;;;;;;;;;;;;0.25;100.00;96893.69;5040653;28;19987;-71
2023/03/16 01:19:44;;;;;;;;;;;;;;;0.18;100.00;96892.19;5062838;28;19916;-71
2023/03/16 01:22:10;;;;;;;;;;;;;;;0.11;100.00;96894.44;5040579;28;20011;-69
2023/03/16 01:24:35;;;;;;;;;;;;;;;0.07;100.00;96893.41;5062582;28;19916;-72
2023/03/16 01:27:01;;;;;;;;;;;;;;;0.09;100.00;96893.13;5062237;28;19969;-70
2023/03/16 01:29:26;;;;;;;;;;;;;;;0.08;100.00;96886.16;5058770;28;19923;-72
2023/03/16 01:31:52;;;;;;;;;;;;;;;0.06;100.00;96883.75;5063258;28;19917;-69
2023/03/16 01:34:17;;;;;;;;;;;;;;;0.03;100.00;96894.31;5058478;28;20417;-71
2023/03/16 01:36:45;;;;;;;;;;;;;;;0.05;100.00;96890.22;5044663;28;19916;-72
2023/03/16 01:39:11;;;;;;;;;;;;;;;-0.03;100.00;96883.59;5039764;28;19920;-69
2023/03/16 01:41:37;;;;;;;;;;;;;;;-0.03;100.00;96890.91;5063120;28;20030;-70
2023/03/16 01:44:02;;;;;;;;;;;;;;;-0.12;100.00;96887.28;5042012;28;20285;-67
2023/03/16 01:46:28;;;;;;;;;;;;;;;-0.17;100.00;96890.03;5027598;28;20000;-72
2023/03/16 01:48:56;;;;;;;;;;;;;;;-0.24;100.00;96887.69;5048880;28;19983;-70
2023/03/16 01:51:50;;;;;;;;;;;;;;;-0.25;100.00;96884.22;5061533;28;20390;-69
2023/03/16 01:54:22;;;;;;;;;;;;;;;-0.15;100.00;96879.78;5035338;28;19955;-70
2023/03/16 01:56:54;;;;;;;;;;;;;;;-0.40;100.00;96877.19;5062616;28;19917;-72
2023/03/16 01:59:21;;;;;;;;;;;;;;;-0.30;100.00;96875.44;5023979;28;19916;-71
2023/03/16 02:01:47;;;;;;;;;;;;;;;-0.27;100.00;96882.91;5069857;28;19916;-69
2023/03/16 02:04:22;;;;;;;;;;;;;;;-0.30;100.00;96883.50;5064045;28;19904;-68
2023/03/16 02:06:47;;;;;;;;;;;;;;;-0.29;100.00;96871.63;5065805;28;20282;-70
2023/03/16 02:09:14;;;;;;;;;;;;;;;-0.21;100.00;96868.28;5073051;28;19916;-70
2023/03/16 02:11:40;;;;;;;;;;;;;;;-0.18;100.00;96861.50;5068395;28;19917;-70
2023/03/16 02:14:08;;;;;;;;;;;;;;;-0.26;100.00;96868.34;5055257;28;20289;-71
2023/03/16 02:16:33;;;;;;;;;;;;;;;-0.29;100.00;96867.06;5062139;28;20349;-71
2023/03/16 02:18:58;;;;;;;;;;;;;;;-0.44;100.00;96862.69;5062950;28;19976;-71
2023/03/16 02:21:31;;;;;;;;;;;;;;;-0.75;100.00;96869.59;5057058;28;19917;-72
2023/03/16 02:23:57;;;;;;;;;;;;;;;-0.78;100.00;96865.56;5044319;28;19956;-71
2023/03/16 02:26:23;;;;;;;;;;;;;;;-0.66;100.00;96868.66;5059038;28;20559;-70
2023/03/16 02:29:05;;;;;;;;;;;;;;;-0.54;100.00;96859.34;5067564;28;20018;-70
2023/03/16 02:31:31;;;;;;;;;;;;;;;-0.63;100.00;96860.00;5045536;28;19916;-70
2023/03/16 02:33:57;;;;;;;;;;;;;;;-0.64;100.00;96866.47;5061554;28;19920;-73
2023/03/16 02:36:23;;;;;;;;;;;;;;;-0.54;100.00;96865.53;5039227;28;20144;-69
2023/03/16 02:38:48;;;;;;;;;;;;;;;-0.56;100.00;96873.06;5044520;28;19974;-70
2023/03/16 02:41:15;;;;;;;;;;;;;;;-0.65;100.00;96866.75;5057520;28;19920;-73
2023/03/16 02:43:47;;;;;;;;;;;;;;;-0.63;100.00;96862.69;5062355;28;19963;-72
2023/03/16 02:46:13;;;;;;;;;;;;;;;-0.65;100.00;96861.38;5056598;28;20330;-71
2023/03/16 02:48:54;;;;;;;;;;;;;;;-0.50;100.00;96857.69;5096328;22;19950;-74
2023/03/16 02:51:19;;;;;;;;;;;;;;;-0.45;100.00;96860.28;5076835;28;19981;-73
2023/03/16 02:53:44;;;;;;;;;;;;;;;-0.49;100.00;96854.69;5064496;28;20379;-73
2023/03/16 02:56:10;;;;;;;;;;;;;;;-0.52;100.00;96859.84;5076601;28;19923;-73
2023/03/16 02:58:35;;;;;;;;;;;;;;;-0.35;100.00;96854.75;5081005;28;20287;-72
2023/03/16 03:01:01;;;;;;;;;;;;;;;-0.37;100.00;96851.56;5082124;28;20340;-72
2023/03/16 03:03:26;;;;;;;;;;;;;;;-0.53;100.00;96850.97;5076814;28;20252;-73
2023/03/16 03:05:51;;;;;;;;;;;;;;;-0.56;100.00;96854.25;5062336;28;19959;-73
2023/03/16 03:08:19;;;;;;;;;;;;;;;-0.56;100.00;96856.13;5077251;28;19961;-71
2023/03/16 03:10:44;;;;;;;;;;;;;;;-0.41;100.00;96859.41;5089590;28;19947;-73
2023/03/16 03:13:11;;;;;;;;;;;;;;;-0.31;100.00;96854.97;5090266;28;19920;-73
2023/03/16 03:15:36;;;;;;;;;;;;;;;-0.25;100.00;96857.31;5063301;28;19923;-76
2023/03/16 03:18:01;;;;;;;;;;;;;;;-0.36;100.00;96861.25;5079842;28;19916;-74
2023/03/16 03:20:28;;;;;;;;;;;;;;;-0.34;100.00;96864.44;5044052;28;19953;-74
2023/03/16 03:22:53;;;;;;;;;;;;;;;-0.37;100.00;96870.41;5083504;28;19991;-74
2023/03/16 03:25:20;;;;;;;;;;;;;;;-0.41;100.00;96869.38;5079107;28;19920;-74
2023/03/16 03:27:46;;;;;;;;;;;;;;;-0.35;100.00;96859.34;5085041;28;20006;-72
2023/03/16 03:30:14;;;;;;;;;;;;;;;-0.36;100.00;96853.16;5061448;28;19916;-73
2023/03/16 03:32:40;;;;;;;;;;;;;;;-0.47;100.00;96852.53;5066596;28;19962;-73
2023/03/16 03:35:06;;;;;;;;;;;;;;;-0.49;100.00;96851.19;5062329;28;20465;-70
2023/03/16 03:37:31;;;;;;;;;;;;;;;-0.51;100.00;96856.88;5085093;28;19924;-73
2023/03/16 03:39:57;;;;;;;;;;;;;;;-0.58;100.00;96859.13;5085068;28;19918;-73
2023/03/16 03:42:22;;;;;;;;;;;;;;;-0.60;100.00;96848.63;5080278;28;19989;-72
2023/03/16 03:44:48;;;;;;;;;;;;;;;-0.73;100.00;96849.38;5068232;28;19978;-74
2023/03/16 03:47:14;;;;;;;;;;;;;;;-0.82;100.00;96851.91;5080202;28;20249;-74
2023/03/16 03:49:39;;;;;;;;;;;;;;;-0.85;100.00;96844.41;5085620;28;20361;-72
2023/03/16 03:52:04;;;;;;;;;;;;;;;-0.88;100.00;96849.56;5081704;28;20296;-70
2023/03/16 03:54:30;;;;;;;;;;;;;;;-0.90;100.00;96847.19;5067222;28;19923;-74
2023/03/16 03:56:55;;;;;;;;;;;;;;;-0.85;100.00;96849.78;5084086;28;19973;-73
2023/03/16 03:59:21;;;;;;;;;;;;;;;-0.87;100.00;96854.66;5078862;28;19920;-73
2023/03/16 04:01:47;;;;;;;;;;;;;;;-0.81;100.00;96842.75;5085313;28;19917;-72
2023/03/16 04:04:13;;;;;;;;;;;;;;;-0.89;100.00;96846.09;5080220;28;19939;-72
2023/03/16 04:06:38;;;;;;;;;;;;;;;-0.97;100.00;96847.53;5085178;28;19920;-73
2023/03/16 04:09:04;;;;;;;;;;;;;;;-1.01;100.00;96849.19;5081243;28;20002;-72
2023/03/16 04:11:29;;;;;;;;;;;;;;;-1.01;100.00;96843.81;5085441;28;19998;-74
2023/03/16 04:13:55;;;;;;;;;;;;;;;-0.96;100.00;96837.56;5066658;28;20467;-72
2023/03/16 04:16:21;;;;;;;;;;;;;;;-1.00;100.00;96836.56;5079662;28;19916;-73
2023/03/16 04:18:46;;;;;;;;;;;;;;;-1.08;100.00;96832.63;5084481;28;19938;-74
2023/03/16 04:21:13;;;;;;;;;;;;;;;-1.14;100.00;96831.06;5062353;28;19952;-74
2023/03/16 04:23:38;;;;;;;;;;;;;;;-1.11;100.00;96822.44;5088271;28;19920;-73
2023/03/16 04:26:04;;;;;;;;;;;;;;;-1.14;100.00;96823.00;5097372;28;19963;-71
2023/03/16 04:28:31;;;;;;;;;;;;;;;-1.16;100.00;96817.91;5085857;28;19917;-73
2023/03/16 04:31:00;;;;;;;;;;;;;;;-1.09;100.00;96820.25;5086396;28;19961;-72
2023/03/16 04:33:25;;;;;;;;;;;;;;;-1.08;100.00;96818.38;5078236;28;19938;-72
2023/03/16 04:35:51;;;;;;;;;;;;;;;-1.14;100.00;96820.31;5078531;28;19916;-72
2023/03/16 04:38:16;;;;;;;;;;;;;;;-1.26;100.00;96822.63;5083201;28;19924;-74
2023/03/16 04:40:41;;;;;;;;;;;;;;;-1.33;100.00;96819.47;5086817;28;19920;-73
2023/03/16 04:43:06;;;;;;;;;;;;;;;-1.21;100.00;96809.91;5062293;28;19916;-73
2023/03/16 04:45:32;;;;;;;;;;;;;;;-1.05;100.00;96815.09;5083234;28;19928;-73
2023/03/16 04:47:57;;;;;;;;;;;;;;;-0.97;100.00;96812.56;5083770;28;19920;-74
2023/03/16 04:50:22;;;;;;;;;;;;;;;-0.94;100.00;96810.41;5058300;28;19999;-74
2023/03/16 04:52:47;;;;;;;;;;;;;;;-1.01;100.00;96808.06;5092229;28;19908;-72
2023/03/16 04:55:13;;;;;;;;;;;;;;;-1.16;100.00;96809.06;5085011;28;19920;-72
2023/03/16 04:57:38;;;;;;;;;;;;;;;-1.13;100.00;96802.28;5085875;28;19928;-73
2023/03/16 05:00:18;;;;;;;;;;;;;;;-1.02;100.00;96799.19;5078187;28;20428;-71
2023/03/16 05:02:43;;;;;;;;;;;;;;;-1.25;100.00;96795.44;5067786;28;19971;-73
2023/03/16 05:05:09;;;;;;;;;;;;;;;-1.28;100.00;96797.91;5091926;28;20062;-73
2023/03/16 05:07:34;;;;;;;;;;;;;;;-1.37;100.00;96793.19;5085149;28;19922;-74
2023/03/16 05:09:59;;;;;;;;;;;;;;;-1.68;100.00;96791.94;5083956;28;19970;-73
2023/03/16 05:12:25;;;;;;;;;;;;;;;-2.00;100.00;96787.94;5078432;28;19920;-74
2023/03/16 05:14:50;;;;;;;;;;;;;;;-1.90;100.00;96787.06;5084687;28;19927;-74
2023/03/16 05:17:15;;;;;;;;;;;;;;;-2.07;100.00;96785.63;5059121;28;19927;-73
2023/03/16 05:19:41;;;;;;;;;;;;;;;-2.08;100.00;96783.22;5082798;28;19920;-73
2023/03/16 05:22:06;;;;;;;;;;;;;;;-1.97;100.00;96787.38;5078927;28;19927;-72
2023/03/16 05:24:31;;;;;;;;;;;;;;;-1.96;100.00;96786.31;5065124;28;19923;-74
2023/03/16 05:26:57;;;;;;;;;;;;;;;-1.79;100.00;96792.03;5063780;28;19969;-73
2023/03/16 05:29:23;;;;;;;;;;;;;;;-2.02;100.00;96787.44;5078346;28;20337;-74
2023/03/16 05:31:49;;;;;;;;;;;;;;;-1.84;100.00;96793.97;5083787;28;20376;-74
2023/03/16 05:34:14;;;;;;;;;;;;;;;-1.79;100.00;96789.34;5060066;28;19916;-74
2023/03/16 05:36:39;;;;;;;;;;;;;;;-1.55;100.00;96797.44;5082753;28;19969;-74
2023/03/16 05:39:07;;;;;;;;;;;;;;;-1.83;100.00;96782.94;5059961;28;19920;-71
2023/03/16 05:41:32;;;;;;;;;;;;;;;-1.74;100.00;96789.28;5082907;28;20385;-74
2023/03/16 05:43:57;;;;;;;;;;;;;;;-1.76;100.00;96793.38;5082597;28;19916;-73
2023/03/16 05:46:23;;;;;;;;;;;;;;;-1.68;100.00;96787.34;5060610;28;20181;-74
2023/03/16 05:48:48;;;;;;;;;;;;;;;-1.33;100.00;96789.91;5063820;28;20026;-75
2023/03/16 05:51:13;;;;;;;;;;;;;;;-1.45;100.00;96788.44;5077654;28;19969;-74
2023/03/16 05:53:39;;;;;;;;;;;;;;;-1.44;100.00;96790.06;5063791;28;19952;-74
2023/03/16 05:56:04;;;;;;;;;;;;;;;-1.19;100.00;96782.75;5059023;28;19923;-72
2023/03/16 05:58:32;;;;;;;;;;;;;;;-0.92;100.00;96782.13;5082604;28;19916;-73
2023/03/16 06:01:00;;;;;;;;;;;;;;;-0.77;100.00;96784.59;5082612;28;19961;-74
2023/03/16 06:03:25;;;;;;;;;;;;;;;-0.54;100.00;96787.50;5077941;28;20085;-74
2023/03/16 06:05:50;;;;;;;;;;;;;;;-0.02;100.00;96787.47;5081637;28;20015;-73
2023/03/16 06:08:16;;;;;;;;;;;;;;;0.41;100.00;96781.84;5074896;28;19916;-72
2023/03/16 06:10:41;;;;;;;;;;;;;;;1.15;100.00;96794.38;5082660;28;19922;-73
2023/03/16 06:13:06;;;;;;;;;;;;;;;2.07;97.67;96786.81;5077753;28;20360;-75
2023/03/16 06:15:31;;;;;;;;;;;;;;;3.28;90.27;96789.44;5082990;28;19924;-74
2023/03/16 06:17:57;;;;;;;;;;;;;;;3.81;82.53;96794.56;5064185;28;20408;-73
2023/03/16 06:20:22;;;;;;;;;;;;;;;4.72;76.95;96796.44;5077525;28;19917;-72
2023/03/16 06:22:47;;;;;;;;;;;;;;;5.67;71.50;96792.31;5081947;28;20403;-73
2023/03/16 06:25:13;;;;;;;;;;;;;;;6.66;67.14;96798.06;5058863;28;20003;-73
2023/03/16 06:27:38;;;;;;;;;;;;;;;7.08;63.51;96795.94;5081954;28;20018;-73
2023/03/16 06:30:08;;;;;;;;;;;;;;;7.47;58.22;96801.81;5059954;28;19970;-72
2023/03/16 06:32:34;;;;;;;;;;;;;;;5.87;65.33;96803.47;5070709;28;19959;-74
2023/03/16 06:35:01;;;;;;;;;;;;;;;5.56;67.45;96810.13;5052345;28;20346;-74
2023/03/16 06:37:26;;;;;;;;;;;;;;;4.15;72.98;96801.06;5056048;28;19923;-75
2023/03/16 06:39:52;;;;;;;;;;;;;;;5.67;66.06;96805.91;5062433;28;20361;-74
2023/03/16 06:42:18;;;;;;;;;;;;;;;5.24;64.95;96804.28;5060763;28;19916;-73
2023/03/16 06:44:43;;;;;;;;;;;;;;;4.45;70.80;96798.44;5075283;28;20007;-73
2023/03/16 06:47:09;;;;;;;;;;;;;;;3.75;74.46;96798.56;5057184;28;20377;-73
2023/03/16 06:49:34;;;;;;;;;;;;;;;4.85;70.91;96800.03;5061908;28;19922;-74
2023/03/16 06:52:02;;;;;;;;;;;;;;;4.39;69.42;96797.00;5062151;28;19916;-73
2023/03/16 06:54:27;;;;;;;;;;;;;;;5.12;67.79;96799.56;5050220;28;19959;-73
2023/03/16 06:56:52;;;;;;;;;;;;;;;5.23;68.96;96807.34;5057601;28;19955;-73
2023/03/16 06:59:18;;;;;;;;;;;;;;;4.96;66.98;96803.97;5058375;28;19917;-72
2023/03/16 07:01:43;;;;;;;;;;;;;;;4.96;65.97;96802.03;5065230;28;19963;-73
2023/03/16 07:04:09;;;;;;;;;;;;;;;3.91;72.17;96798.06;5061040;28;19988;-72
2023/03/16 07:06:35;;;;;;;;;;;;;;;4.20;69.84;96802.81;5048193;28;20321;-72
2023/03/16 07:09:00;;;;;;;;;;;;;;;3.86;69.86;96800.94;5065728;28;19917;-72
2023/03/16 07:11:26;;;;;;;;;;;;;;;3.77;71.29;96806.38;5061505;28;19932;-72
2023/03/16 07:13:51;;;;;;;;;;;;;;;3.80;70.64;96805.75;5065708;28;20391;-73
2023/03/16 07:16:17;;;;;;;;;;;;;;;4.40;69.94;96801.31;5045068;28;19921;-72
2023/03/16 07:18:43;;;;;;;;;;;;;;;4.83;65.78;96808.50;5067100;28;19939;-72
2023/03/16 07:21:08;;;;;;;;;;;;;;;4.48;64.21;96807.81;5042245;28;19939;-72
2023/03/16 07:23:34;;;;;;;;;;;;;;;4.44;62.59;96799.53;5065315;28;19916;-73
2023/03/16 07:25:59;;;;;;;;;;;;;;;4.71;62.00;96813.81;5063579;28;20506;-72
2023/03/16 07:28:25;;;;;;;;;;;;;;;4.70;62.68;96809.50;5060091;28;19928;-73
2023/03/16 07:30:51;;;;;;;;;;;;;;;6.30;59.35;96815.91;5047156;28;19943;-73
2023/03/16 07:33:16;;;;;;;;;;;;;;;8.66;53.04;96818.75;5043257;28;19916;-73
2023/03/16 07:35:41;;;;;;;;;;;;;;;7.95;49.35;96814.84;5039174;28;20324;-73
2023/03/16 07:38:09;;;;;;;;;;;;;;;7.60;49.58;96813.47;5028397;28;19920;-71
2023/03/16 07:40:35;;;;;;;;;;;;;;;6.30;54.36;96819.44;5066428;28;19935;-73
2023/03/16 07:43:00;;;;;;;;;;;;;;;6.93;51.79;96820.34;5067640;28;19916;-73
2023/03/16 07:45:25;;;;;;;;;;;;;;;6.20;53.83;96827.22;5044000;28;19983;-72
2023/03/16 07:47:51;;;;;;;;;;;;;;;7.02;50.99;96824.56;5048550;28;19920;-72
2023/03/16 07:50:18;;;;;;;;;;;;;;;8.82;49.97;96823.41;5060427;28;19963;-72
2023/03/16 07:52:44;;;;;;;;;;;;;;;9.65;43.12;96821.47;5077780;28;19938;-72
2023/03/16 07:55:10;;;;;;;;;;;;;;;9.87;42.31;96821.94;5047349;28;20289;-72
2023/03/16 07:57:38;;;;;;;;;;;;;;;9.60;43.63;96821.75;5068131;28;19920;-73
2023/03/16 08:00:04;;;;;;;;;;;;;;;7.80;47.61;96824.56;5062124;28;19920;-71
2023/03/16 08:02:30;;;;;;;;;;;;;;;6.55;50.12;96830.38;5063813;28;19920;-73
2023/03/16 08:04:55;;;;;;;;;;;;;;;6.43;50.57;96835.81;5064634;28;19936;-72
2023/03/16 08:07:20;;;;;;;;;;;;;;;8.33;46.62;96824.47;5058621;28;19916;-73
2023/03/16 08:09:46;;;;;;;;;;;;;;;9.08;44.86;96826.41;5063576;28;19917;-74
2023/03/16 08:12:11;;;;;;;;;;;;;;;9.27;42.95;96827.63;5058107;28;20377;-72
2023/03/16 08:14:36;;;;;;;;;;;;;;;10.46;40.88;96831.75;5053991;28;19923;-72
2023/03/16 08:17:03;;;;;;;;;;;;;;;10.85;40.01;96825.38;5066505;28;19923;-72
2023/03/16 08:19:28;;;;;;;;;;;;;;;8.54;42.95;96818.81;5056292;28;20023;-73
2023/03/16 08:21:54;;;;;;;;;;;;;;;9.88;41.91;96820.75;5068757;28;19958;-73
2023/03/16 08:24:19;;;;;;;;;;;;;;;8.37;45.22;96819.88;5067268;28;20002;-72
2023/03/16 08:26:44;;;;;;;;;;;;;;;9.86;42.18;96820.34;5046282;28;19928;-73
2023/03/16 08:29:10;;;;;;;;;;;;;;;9.43;42.82;96814.72;5041526;28;20531;-72
2023/03/16 08:31:35;;;;;;;;;;;;;;;9.72;43.74;96810.69;5062652;28;19931;-72
2023/03/16 08:34:01;;;;;;;;;;;;;;;9.42;42.71;96815.06;5045625;28;19921;-72
2023/03/16 08:36:27;;;;;;;;;;;;;;;8.77;43.60;96817.06;5057363;28;20269;-73
2023/03/16 08:38:53;;;;;;;;;;;;;;;10.58;41.23;96808.06;5046711;28;19916;-73
2023/03/16 08:41:19;;;;;;;;;;;;;;;11.06;39.81;96812.03;5061655;28;19917;-73
2023/03/16 08:43:45;;;;;;;;;;;;;;;9.01;42.81;96809.06;5048056;28;19962;-73
2023/03/16 08:46:12;;;;;;;;;;;;;;;9.85;42.88;96821.47;5058929;28;19924;-73
2023/03/16 08:48:39;;;;;;;;;;;;;;;9.69;42.42;96807.88;5065206;28;20003;-73
2023/03/16 08:51:04;;;;;;;;;;;;;;;10.22;42.47;96818.31;5040847;28;19921;-72
2023/03/16 08:53:30;;;;;;;;;;;;;;;11.73;39.91;96807.91;5045426;28;19966;-72
2023/03/16 08:56:06;;;;;;;;;;;;;;;12.23;39.06;96811.31;5045157;28;19921;-74
2023/03/16 08:58:32;;;;;;;;;;;;;;;13.01;37.06;96824.25;5044177;28;20276;-72
2023/03/16 09:00:59;;;;;;;;;;;;;;;11.92;39.39;96820.75;5044664;28;19959;-73
2023/03/16 09:03:25;;;;;;;;;;;;;;;12.21;37.54;96823.84;5058840;28;19923;-72
2023/03/16 09:05:50;;;;;;;;;;;;;;;12.24;38.43;96820.34;5063791;28;19984;-72
2023/03/16 09:08:16;;;;;;;;;;;;;;;12.39;38.45;96816.59;5058545;28;19970;-72
2023/03/16 09:10:42;;;;;;;;;;;;;;;13.33;37.51;96810.03;5063056;28;19952;-72
2023/03/16 09:13:07;;;;;;;;;;;;;;;13.51;36.96;96804.63;5057755;28;19967;-72
2023/03/16 09:15:32;;;;;;;;;;;;;;;13.24;37.36;96817.00;5044200;28;19932;-73
2023/03/16 09:17:59;;;;;;;;;;;;;;;12.69;38.38;96815.72;5061693;28;19965;-71
2023/03/16 09:20:26;;;;;;;;;;;;;;;12.51;37.99;96807.28;5040003;28;20538;-72
2023/03/16 09:22:51;;;;;;;;;;;;;;;12.72;38.30;96797.69;5062818;28;19916;-72
2023/03/16 09:25:16;;;;;;;;;;;;;;;11.93;39.18;96797.63;5058314;28;19928;-72
2023/03/16 09:27:41;;;;;;;;;;;;;;;12.54;37.63;96794.78;5045207;28;19916;-72
2023/03/16 09:30:07;;;;;;;;;;;;;;;11.21;41.75;96788.38;5040201;28;19917;-72
2023/03/16 09:32:33;;;;;;;;;;;;;;;11.14;41.28;96796.47;5064201;28;19920;-72
2023/03/16 09:34:59;;;;;;;;;;;;;;;11.68;40.44;96780.81;5061815;28;19973;-72
2023/03/16 09:37:25;;;;;;;;;;;;;;;11.44;41.32;96785.56;5038470;28;20007;-72
2023/03/16 09:39:51;;;;;;;;;;;;;;;11.67;41.01;96779.22;5062442;28;19917;-73
2023/03/16 09:42:42;;;;;;;;;;;;;;;11.27;41.15;96775.94;5057822;28;19924;-72
2023/03/16 09:45:08;;;;;;;;;;;;;;;11.64;40.13;96769.78;5053467;28;19967;-73
2023/03/16 09:47:37;;;;;;;;;;;;;;;11.96;39.67;96779.63;5044599;28;19967;-73
2023/03/16 09:50:26;;;;;;;;;;;;;;;10.85;40.54;96770.56;5041968;28;20233;-73
2023/03/16 09:52:52;;;;;;;;;;;;;;;11.27;39.44;96775.13;5062932;28;19916;-73
2023/03/16 09:55:30;;;;;;;;;;;;;;;11.03;41.22;96773.59;5052645;28;20080;-73
2023/03/16 09:57:56;;;;;;;;;;;;;;;11.28;40.02;96765.75;5062145;28;19924;-73
2023/03/16 10:00:24;;;;;;;;;;;;;;;11.17;39.70;96768.34;5057347;28;20368;-73
2023/03/16 10:02:49;;;;;;;;;;;;;;;11.79;39.74;96759.00;5075532;28;19904;-71
2023/03/16 10:05:15;;;;;;;;;;;;;;;10.87;40.51;96760.03;5057449;28;19928;-73
2023/03/16 10:08:00;;;;;;;;;;;;;;;10.09;42.35;96758.25;5045973;28;19920;-72
2023/03/16 10:10:53;;;;;;;;;;;;;;;11.25;38.15;96758.25;5057110;28;19920;-73
2023/03/16 10:13:32;;;;;;;;;;;;;;;11.47;37.69;96760.16;5036783;28;19967;-72
2023/03/16 10:16:00;;;;;;;;;;;;;;;11.75;38.52;96749.94;5062260;28;19939;-73
2023/03/16 10:18:31;;;;;;;;;;;;;;;11.20;40.64;96744.88;5057570;28;19916;-72
2023/03/16 10:20:57;;;;;;;;;;;;;;;12.05;39.62;96731.50;5043651;28;20380;-73
2023/03/16 10:23:23;;;;;;;;;;;;;;;12.33;38.73;96726.69;5057285;28;20327;-73
2023/03/16 10:25:52;;;;;;;;;;;;;;;12.28;39.39;96727.00;5049051;28;19950;-73
2023/03/16 10:28:20;;;;;;;;;;;;;;;11.67;38.06;96729.84;5040341;28;19958;-72
2023/03/16 10:30:46;;;;;;;;;;;;;;;11.70;38.83;96731.81;5063060;28;19947;-73
2023/03/16 10:33:17;;;;;;;;;;;;;;;12.30;39.07;96735.66;5058191;28;20480;-72
2023/03/16 10:35:45;;;;;;;;;;;;;;;12.26;38.42;96741.13;5067918;28;20307;-72
2023/03/16 10:38:25;;;;;;;;;;;;;;;12.16;38.68;96745.34;5044594;28;20010;-72
2023/03/16 10:40:51;;;;;;;;;;;;;;;11.82;38.93;96750.81;5070661;28;19921;-72
2023/03/16 10:43:16;;;;;;;;;;;;;;;12.16;39.42;96739.84;5066641;28;19921;-72
2023/03/16 10:45:42;;;;;;;;;;;;;;;12.03;39.54;96731.09;5073760;28;19926;-72
2023/03/16 10:48:15;;;;;;;;;;;;;;;11.88;39.58;96726.56;5047920;28;20586;-72
2023/03/16 10:50:42;;;;;;;;;;;;;;;11.70;40.45;96725.56;5069388;28;20244;-72
2023/03/16 10:53:37;;;;;;;;;;;;;;;11.66;38.93;96722.78;5064378;28;19922;-72
2023/03/16 10:56:13;;;;;;;;;;;;;;;12.29;38.92;96728.59;5054078;28;19916;-71
2023/03/16 10:58:41;;;;;;;;;;;;;;;12.35;39.12;96730.63;5050934;28;20302;-72
2023/03/16 11:01:26;;;;;;;;;;;;;;;12.79;38.36;96724.34;5043947;28;20377;-72
2023/03/16 11:03:54;;;;;;;;;;;;;;;13.00;38.20;96720.97;5068166;28;19923;-73
2023/03/16 11:06:29;;;;;;;;;;;;;;;11.40;38.82;96724.41;5063207;28;19960;-72
2023/03/16 11:09:01;;;;;;;;;;;;;;;12.47;37.20;96712.28;5049773;28;20011;-73
2023/03/16 11:11:29;;;;;;;;;;;;;;;12.89;36.82;96708.31;5063581;28;19987;-73
2023/03/16 11:13:58;;;;;;;;;;;;;;;13.20;37.31;96713.25;5069747;28;20025;-73
2023/03/16 11:16:24;;;;;;;;;;;;;;;12.91;36.46;96714.22;5063647;28;20633;-72
2023/03/16 11:18:53;;;;;;;;;;;;;;;12.74;37.19;96708.19;5052425;28;19920;-71
2023/03/16 11:21:24;;;;;;;;;;;;;;;12.93;36.47;96717.41;5079898;28;19943;-72
2023/03/16 11:23:52;;;;;;;;;;;;;;;12.37;36.64;96705.53;5081694;28;19920;-72
2023/03/16 11:26:32;;;;;;;;;;;;;;;13.50;35.86;96709.50;5047258;28;19927;-72
2023/03/16 11:29:08;;;;;;;;;;;;;;;13.66;34.99;96708.41;5053555;28;19921;-72
2023/03/16 11:31:44;;;;;;;;;;;;;;;13.02;34.94;96704.09;5049727;28;20265;-73
2023/03/16 11:34:13;;;;;;;;;;;;;;;12.55;35.86;96698.25;5046876;28;19975;-72
2023/03/16 11:36:38;;;;;;;;;;;;;;;13.18;36.01;96699.09;5068704;28;19923;-72
2023/03/16 11:39:21;;;;;;;;;;;;;;;14.01;35.29;96693.97;5061551;28;19963;-70
2023/03/16 11:42:09;;;;;;;;;;;;;;;14.81;31.21;96692.13;5070720;28;19917;-72
2023/03/16 11:45:04;;;;;;;;;;;;;;;14.75;31.72;96679.91;5050730;28;19916;-72
2023/03/16 11:47:46;;;;;;;;;;;;;;;14.40;32.31;96676.72;5048751;28;20334;-72
2023/03/16 11:50:19;;;;;;;;;;;;;;;14.93;30.68;96672.44;5052579;28;19942;-72
2023/03/16 11:52:44;;;;;;;;;;;;;;;15.99;29.67;96666.97;5032393;28;20083;-71
2023/03/16 11:55:23;;;;;;;;;;;;;;;15.92;29.69;96666.22;5059082;28;20030;-73
2023/03/16 11:57:51;;;;;;;;;;;;;;;16.66;30.32;96653.09;5045810;28;20332;-71
2023/03/16 12:00:23;;;;;;;;;;;;;;;16.72;29.51;96659.75;5059523;28;20318;-73
2023/03/16 12:03:11;;;;;;;;;;;;;;;16.07;29.47;96651.13;5063689;28;20015;-72
2023/03/16 12:05:46;;;;;;;;;;;;;;;15.85;29.45;96647.72;5054744;28;19955;-73
2023/03/16 12:08:27;;;;;;;;;;;;;;;15.78;30.27;96651.28;5066561;28;19916;-73
2023/03/16 12:11:01;;;;;;;;;;;;;;;15.89;29.07;96625.59;5064382;28;19916;-72
2023/03/16 12:13:35;;;;;;;;;;;;;;;15.88;30.02;96646.13;5064594;28;19923;-72
2023/03/16 12:16:04;;;;;;;;;;;;;;;15.01;30.30;96638.13;5065698;28;20002;-73
2023/03/16 12:18:36;;;;;;;;;;;;;;;15.62;29.27;96626.88;5045888;28;19958;-72
2023/03/16 12:21:11;;;;;;;;;;;;;;;15.89;28.50;96626.38;5064368;28;19921;-73
2023/03/16 12:23:40;;;;;;;;;;;;;;;15.49;28.71;96636.81;5084280;28;20357;-73
2023/03/16 12:26:07;;;;;;;;;;;;;;;16.38;28.17;96630.00;5079045;27;19924;-73
2023/03/16 12:28:33;;;;;;;;;;;;;;;16.07;27.81;96642.06;5049891;28;19931;-73
2023/03/16 12:31:08;;;;;;;;;;;;;;;15.06;28.89;96634.97;5084467;28;19920;-73
2023/03/16 12:33:42;;;;;;;;;;;;;;;13.94;30.99;96628.66;5064616;28;19972;-73
2023/03/16 12:36:27;;;;;;;;;;;;;;;14.01;30.73;96640.84;5077470;28;20398;-73
2023/03/16 12:39:07;;;;;;;;;;;;;;;14.64;30.40;96642.13;5084363;28;19916;-73
2023/03/16 12:41:51;;;;;;;;;;;;;;;14.15;30.34;96627.13;5084371;28;20036;-73
2023/03/16 12:44:16;;;;;;;;;;;;;;;13.52;33.64;96619.13;5060450;28;20534;-73
2023/03/16 12:46:58;;;;;;;;;;;;;;;13.56;32.77;96617.16;5083799;28;19920;-73
2023/03/16 12:49:23;;;;;;;;;;;;;;;13.09;33.72;96620.84;5080609;28;20417;-72